sensor_id;sensor_type;location;lat;lon;timestamp;pressure;altitude;pressure_sealevel;temperature;humidity
71485;BME280;59300;52.074;4.758;2022-10-03T00:09:20;102631.41;;;7.28;100.00
71485;BME280;59300;52.074;4.758;2022-10-03T00:16:05;102633.94;;;7.22;100.00
71485;BME280;59300;52.074;4.758;2022-10-03T00:22:50;102642.75;;;7.24;100.00
71485;BME280;59300;52.074;4.758;2022-10-03T00:32:50;102636.41;;;7.11;100.00
71485;BME280;59300;52.074;4.758;2022-10-03T00:36:13;102647.63;;;6.99;100.00
71485;BME280;59300;52.074;4.758;2022-10-03T00:43:08;102644.09;;;7.00;100.00
71485;BME280;59300;52.074;4.758;2022-10-03T00:59:42;102673.22;;;7.16;100.00
71485;BME280;59300;52.074;4.758;2022-10-03T01:03:17;102669.94;;;7.29;100.00
71485;BME280;59300;52.074;4.758;2022-10-03T01:06:36;102679.72;;;7.40;100.00
71485;BME280;59300;52.074;4.758;2022-10-03T01:09:54;102689.34;;;7.39;100.00
71485;BME280;59300;52.074;4.758;2022-10-03T01:16:27;102677.63;;;7.17;100.00
71485;BME280;59300;52.074;4.758;2022-10-03T01:30:02;102674.44;;;7.38;100.00
71485;BME280;59300;52.074;4.758;2022-10-03T01:33:17;102678.72;;;7.31;100.00
71485;BME280;59300;52.074;4.758;2022-10-03T01:36:29;102670.66;;;7.19;100.00
71485;BME280;59300;52.074;4.758;2022-10-03T01:39:43;102670.47;;;7.06;100.00
71485;BME280;59300;52.074;4.758;2022-10-03T01:43:22;102682.63;;;7.01;100.00
71485;BME280;59300;52.074;4.758;2022-10-03T01:46:34;102683.53;;;7.02;100.00
71485;BME280;59300;52.074;4.758;2022-10-03T01:49:45;102684.59;;;7.15;100.00
71485;BME280;59300;52.074;4.758;2022-10-03T01:53:02;102679.34;;;7.15;100.00
71485;BME280;59300;52.074;4.758;2022-10-03T01:56:38;102688.25;;;7.26;100.00
71485;BME280;59300;52.074;4.758;2022-10-03T02:00:00;102684.78;;;7.27;100.00
71485;BME280;59300;52.074;4.758;2022-10-03T02:03:31;102693.31;;;7.14;100.00
71485;BME280;59300;52.074;4.758;2022-10-03T02:10:02;102700.00;;;6.93;100.00
71485;BME280;59300;52.074;4.758;2022-10-03T02:13:17;102694.75;;;6.93;100.00
71485;BME280;59300;52.074;4.758;2022-10-03T02:20:00;102690.28;;;6.87;100.00
71485;BME280;59300;52.074;4.758;2022-10-03T02:23:21;102692.69;;;6.76;100.00
71485;BME280;59300;52.074;4.758;2022-10-03T02:30:20;102700.25;;;6.58;100.00
71485;BME280;59300;52.074;4.758;2022-10-03T02:37:26;102695.88;;;6.57;100.00
71485;BME280;59300;52.074;4.758;2022-10-03T02:54:40;102692.94;;;6.40;100.00
71485;BME280;59300;52.074;4.758;2022-10-03T03:05:00;102703.53;;;6.46;100.00
71485;BME280;59300;52.074;4.758;2022-10-03T03:08:27;102706.13;;;6.44;100.00
71485;BME280;59300;52.074;4.758;2022-10-03T03:15:44;102706.00;;;6.38;100.00
71485;BME280;59300;52.074;4.758;2022-10-03T03:19:11;102705.06;;;6.35;100.00
71485;BME280;59300;52.074;4.758;2022-10-03T03:29:11;102710.75;;;6.13;100.00
71485;BME280;59300;52.074;4.758;2022-10-03T03:45:45;102699.78;;;5.92;100.00
71485;BME280;59300;52.074;4.758;2022-10-03T03:49:03;102710.16;;;5.86;100.00
71485;BME280;59300;52.074;4.758;2022-10-03T03:59:38;102718.72;;;5.78;100.00
71485;BME280;59300;52.074;4.758;2022-10-03T04:06:06;102714.38;;;5.79;100.00
71485;BME280;59300;52.074;4.758;2022-10-03T04:12:44;102715.13;;;5.73;100.00
71485;BME280;59300;52.074;4.758;2022-10-03T04:15:59;102713.28;;;5.69;100.00
71485;BME280;59300;52.074;4.758;2022-10-03T04:19:18;102720.22;;;5.67;100.00
71485;BME280;59300;52.074;4.758;2022-10-03T04:22:45;102722.81;;;5.65;100.00
71485;BME280;59300;52.074;4.758;2022-10-03T04:26:01;102715.75;;;5.63;100.00
71485;BME280;59300;52.074;4.758;2022-10-03T04:39:31;102735.72;;;5.58;100.00
71485;BME280;59300;52.074;4.758;2022-10-03T04:42:48;102734.03;;;5.60;100.00
71485;BME280;59300;52.074;4.758;2022-10-03T04:59:44;102722.56;;;5.54;100.00
71485;BME280;59300;52.074;4.758;2022-10-03T05:07:10;102731.50;;;5.64;100.00
71485;BME280;59300;52.074;4.758;2022-10-03T05:09:59;102737.88;;;5.76;100.00
71485;BME280;59300;52.074;4.758;2022-10-03T05:13:17;102741.28;;;5.72;100.00
71485;BME280;59300;52.074;4.758;2022-10-03T05:19:49;102744.84;;;5.75;100.00
71485;BME280;59300;52.074;4.758;2022-10-03T05:23:11;102745.75;;;5.76;100.00
71485;BME280;59300;52.074;4.758;2022-10-03T05:26:25;102751.16;;;5.83;100.00
71485;BME280;59300;52.074;4.758;2022-10-03T05:33:00;102745.31;;;6.38;100.00
71485;BME280;59300;52.074;4.758;2022-10-03T05:39:28;102752.22;;;6.78;100.00
71485;BME280;59300;52.074;4.758;2022-10-03T05:42:40;102749.00;;;6.94;100.00
71485;BME280;59300;52.074;4.758;2022-10-03T05:45:51;102746.69;;;7.11;100.00
71485;BME280;59300;52.074;4.758;2022-10-03T05:59:53;102749.44;;;7.76;100.00
71485;BME280;59300;52.074;4.758;2022-10-03T06:27:00;102753.25;;;8.69;100.00
71485;BME280;59300;52.074;4.758;2022-10-03T06:37:32;102756.34;;;9.17;100.00
71485;BME280;59300;52.074;4.758;2022-10-03T06:47:40;102773.59;;;9.96;100.00
71485;BME280;59300;52.074;4.758;2022-10-03T06:50:53;102778.09;;;10.16;100.00
71485;BME280;59300;52.074;4.758;2022-10-03T07:08:04;102788.97;;;11.12;100.00
71485;BME280;59300;52.074;4.758;2022-10-03T07:11:41;102784.59;;;11.34;100.00
71485;BME280;59300;52.074;4.758;2022-10-03T07:22:15;102793.34;;;11.89;100.00
71485;BME280;59300;52.074;4.758;2022-10-03T07:25:33;102804.78;;;11.94;100.00
71485;BME280;59300;52.074;4.758;2022-10-03T07:41:59;102800.38;;;12.09;100.00
71485;BME280;59300;52.074;4.758;2022-10-03T07:48:50;102810.88;;;12.31;100.00
71485;BME280;59300;52.074;4.758;2022-10-03T07:52:27;102812.59;;;12.44;100.00
71485;BME280;59300;52.074;4.758;2022-10-03T08:02:31;102814.06;;;13.01;100.00
71485;BME280;59300;52.074;4.758;2022-10-03T08:05:53;102818.44;;;13.08;100.00
71485;BME280;59300;52.074;4.758;2022-10-03T08:29:39;102830.00;;;14.05;98.08
71485;BME280;59300;52.074;4.758;2022-10-03T08:33:14;102835.28;;;14.08;94.38
71485;BME280;59300;52.074;4.758;2022-10-03T08:37:28;102835.94;;;14.27;94.45
71485;BME280;59300;52.074;4.758;2022-10-03T08:53:31;102837.53;;;15.11;93.30
71485;BME280;59300;52.074;4.758;2022-10-03T09:00:19;102839.97;;;15.25;87.23
71485;BME280;59300;52.074;4.758;2022-10-03T09:07:21;102829.56;;;15.10;87.84
71485;BME280;59300;52.074;4.758;2022-10-03T09:17:35;102831.34;;;15.11;87.62
71485;BME280;59300;52.074;4.758;2022-10-03T09:20:59;102830.19;;;15.27;86.14
71485;BME280;59300;52.074;4.758;2022-10-03T09:30:39;102831.22;;;15.73;82.52
71485;BME280;59300;52.074;4.758;2022-10-03T09:34:00;102830.13;;;15.85;82.97
71485;BME280;59300;52.074;4.758;2022-10-03T09:58:01;102815.66;;;17.59;76.80
71485;BME280;59300;52.074;4.758;2022-10-03T10:08:07;102809.50;;;17.90;71.18
71485;BME280;59300;52.074;4.758;2022-10-03T10:11:25;102815.91;;;17.13;73.99
71485;BME280;59300;52.074;4.758;2022-10-03T10:21:44;102820.63;;;17.02;75.93
71485;BME280;59300;52.074;4.758;2022-10-03T10:25:15;102813.78;;;16.88;77.04
71485;BME280;59300;52.074;4.758;2022-10-03T10:36:04;102818.38;;;17.21;75.61
71485;BME280;59300;52.074;4.758;2022-10-03T11:11:18;102807.59;;;17.26;73.53
71485;BME280;59300;52.074;4.758;2022-10-03T11:26:21;102807.31;;;17.71;72.32
71485;BME280;59300;52.074;4.758;2022-10-03T11:39:37;102805.84;;;17.25;75.00
71485;BME280;59300;52.074;4.758;2022-10-03T11:52:41;102800.09;;;16.65;78.12
71485;BME280;59300;52.074;4.758;2022-10-03T12:06:02;102801.19;;;16.56;76.06
71485;BME280;59300;52.074;4.758;2022-10-03T12:09:15;102797.66;;;16.55;74.27
71485;BME280;59300;52.074;4.758;2022-10-03T12:15:33;102800.38;;;16.52;73.11
71485;BME280;59300;52.074;4.758;2022-10-03T12:21:47;102802.09;;;16.55;73.67
71485;BME280;59300;52.074;4.758;2022-10-03T12:25:19;102797.81;;;16.48;71.68
71485;BME280;59300;52.074;4.758;2022-10-03T12:28:40;102792.44;;;16.49;71.58
71485;BME280;59300;52.074;4.758;2022-10-03T12:32:05;102789.28;;;16.32;72.44
71485;BME280;59300;52.074;4.758;2022-10-03T12:35:40;102790.13;;;16.32;72.93
71485;BME280;59300;52.074;4.758;2022-10-03T12:38:54;102787.94;;;16.10;71.56
71485;BME280;59300;52.074;4.758;2022-10-03T12:42:08;102782.91;;;15.95;74.33
71485;BME280;59300;52.074;4.758;2022-10-03T12:51:57;102774.09;;;15.91;76.67
71485;BME280;59300;52.074;4.758;2022-10-03T12:55:23;102768.72;;;15.93;75.56
71485;BME280;59300;52.074;4.758;2022-10-03T12:58:42;102778.19;;;16.08;74.94
71485;BME280;59300;52.074;4.758;2022-10-03T13:05:32;102767.22;;;15.78;76.36
71485;BME280;59300;52.074;4.758;2022-10-03T13:12:10;102773.09;;;15.47;78.52
71485;BME280;59300;52.074;4.758;2022-10-03T13:15:43;102770.69;;;15.31;79.05
71485;BME280;59300;52.074;4.758;2022-10-03T13:18:52;102763.41;;;15.44;79.71
71485;BME280;59300;52.074;4.758;2022-10-03T13:22:22;102767.88;;;15.42;78.54
71485;BME280;59300;52.074;4.758;2022-10-03T13:25:34;102766.69;;;15.59;78.50
71485;BME280;59300;52.074;4.758;2022-10-03T13:32:09;102752.44;;;15.61;79.13
71485;BME280;59300;52.074;4.758;2022-10-03T13:35:34;102751.50;;;15.64;77.95
71485;BME280;59300;52.074;4.758;2022-10-03T13:38:48;102758.38;;;15.76;76.33
71485;BME280;59300;52.074;4.758;2022-10-03T13:45:33;102757.81;;;15.60;78.78
71485;BME280;59300;52.074;4.758;2022-10-03T13:48:38;102748.13;;;15.56;78.79
71485;BME280;59300;52.074;4.758;2022-10-03T13:52:05;102743.84;;;15.47;80.52
71485;BME280;59300;52.074;4.758;2022-10-03T13:55:34;102741.69;;;15.68;81.06
71485;BME280;59300;52.074;4.758;2022-10-03T14:06:10;102732.19;;;15.52;82.16
71485;BME280;59300;52.074;4.758;2022-10-03T14:19:54;102721.53;;;15.05;83.63
71485;BME280;59300;52.074;4.758;2022-10-03T14:23:23;102720.63;;;15.05;84.09
71485;BME280;59300;52.074;4.758;2022-10-03T14:26:40;102728.63;;;15.03;84.36
71485;BME280;59300;52.074;4.758;2022-10-03T14:30:02;102726.91;;;14.99;83.96
71485;BME280;59300;52.074;4.758;2022-10-03T14:33:24;102717.16;;;15.00;85.08
71485;BME280;59300;52.074;4.758;2022-10-03T14:36:50;102714.38;;;15.08;86.31
71485;BME280;59300;52.074;4.758;2022-10-03T14:46:41;102689.44;;;15.15;84.83
71485;BME280;59300;52.074;4.758;2022-10-03T14:49:51;102685.81;;;15.19;84.22
71485;BME280;59300;52.074;4.758;2022-10-03T14:53:06;102678.63;;;15.24;85.47
71485;BME280;59300;52.074;4.758;2022-10-03T14:56:10;102671.44;;;15.29;84.56
71485;BME280;59300;52.074;4.758;2022-10-03T14:59:27;102673.97;;;15.35;84.52
71485;BME280;59300;52.074;4.758;2022-10-03T15:02:37;102667.56;;;15.46;83.59
71485;BME280;59300;52.074;4.758;2022-10-03T15:09:14;102677.72;;;15.72;83.33
71485;BME280;59300;52.074;4.758;2022-10-03T15:12:22;102668.97;;;16.09;81.68
71485;BME280;59300;52.074;4.758;2022-10-03T15:15:28;102654.94;;;16.42;78.37
71485;BME280;59300;52.074;4.758;2022-10-03T15:18:31;102657.41;;;16.86;77.76
71485;BME280;59300;52.074;4.758;2022-10-03T15:21:33;102655.19;;;17.05;75.23
71485;BME280;59300;52.074;4.758;2022-10-03T15:24:35;102649.97;;;17.33;73.50
71485;BME280;59300;52.074;4.758;2022-10-03T15:27:40;102641.03;;;17.34;74.49
71485;BME280;59300;52.074;4.758;2022-10-03T15:30:42;102641.97;;;16.99;72.61
71485;BME280;59300;52.074;4.758;2022-10-03T15:33:50;102649.19;;;16.57;76.05
71485;BME280;59300;52.074;4.758;2022-10-03T15:37:06;102651.09;;;16.15;77.33
71485;BME280;59300;52.074;4.758;2022-10-03T15:40:21;102648.28;;;15.80;78.32
71485;BME280;59300;52.074;4.758;2022-10-03T15:43:30;102640.81;;;15.55;80.02
71485;BME280;59300;52.074;4.758;2022-10-03T15:50:02;102637.63;;;15.36;81.11
71485;BME280;59300;52.074;4.758;2022-10-03T15:53:37;102629.91;;;15.22;81.71
71485;BME280;59300;52.074;4.758;2022-10-03T15:56:41;102636.31;;;15.12;82.46
71485;BME280;59300;52.074;4.758;2022-10-03T15:59:44;102625.13;;;14.93;83.88
71485;BME280;59300;52.074;4.758;2022-10-03T16:02:56;102623.72;;;14.71;85.29
71485;BME280;59300;52.074;4.758;2022-10-03T16:06:12;102626.66;;;14.53;85.09
71485;BME280;59300;52.074;4.758;2022-10-03T16:09:23;102628.69;;;14.35;86.03
71485;BME280;59300;52.074;4.758;2022-10-03T16:12:32;102630.69;;;14.18;87.08
71485;BME280;59300;52.074;4.758;2022-10-03T16:20:20;102623.31;;;13.77;88.42
71485;BME280;59300;52.074;4.758;2022-10-03T16:22:55;102620.88;;;13.59;90.20
71485;BME280;59300;52.074;4.758;2022-10-03T16:26:06;102611.25;;;13.50;91.21
71485;BME280;59300;52.074;4.758;2022-10-03T16:29:19;102612.16;;;13.47;91.89
71485;BME280;59300;52.074;4.758;2022-10-03T16:32:27;102618.41;;;13.45;92.87
71485;BME280;59300;52.074;4.758;2022-10-03T16:35:56;102606.00;;;13.45;93.49
71485;BME280;59300;52.074;4.758;2022-10-03T16:39:00;102605.09;;;13.46;93.67
71485;BME280;59300;52.074;4.758;2022-10-03T16:42:22;102597.19;;;13.45;93.62
71485;BME280;59300;52.074;4.758;2022-10-03T16:45:27;102591.88;;;13.43;93.64
71485;BME280;59300;52.074;4.758;2022-10-03T16:48:32;102601.66;;;13.41;93.66
71485;BME280;59300;52.074;4.758;2022-10-03T16:54:40;102598.28;;;13.20;94.53
71485;BME280;59300;52.074;4.758;2022-10-03T16:57:48;102602.84;;;13.08;95.03
71485;BME280;59300;52.074;4.758;2022-10-03T17:00:59;102596.78;;;12.95;95.88
71485;BME280;59300;52.074;4.758;2022-10-03T17:04:29;102586.34;;;12.81;97.36
71485;BME280;59300;52.074;4.758;2022-10-03T17:07:42;102577.59;;;12.68;98.38
71485;BME280;59300;52.074;4.758;2022-10-03T17:10:51;102579.50;;;12.52;99.10
71485;BME280;59300;52.074;4.758;2022-10-03T17:13:58;102587.59;;;12.35;99.16
71485;BME280;59300;52.074;4.758;2022-10-03T17:20:49;102597.50;;;12.00;100.00
71485;BME280;59300;52.074;4.758;2022-10-03T17:24:04;102594.91;;;11.84;100.00
71485;BME280;59300;52.074;4.758;2022-10-03T17:27:24;102588.81;;;11.75;100.00
71485;BME280;59300;52.074;4.758;2022-10-03T17:30:36;102580.91;;;11.70;100.00
71485;BME280;59300;52.074;4.758;2022-10-03T17:33:48;102578.22;;;11.75;100.00
71485;BME280;59300;52.074;4.758;2022-10-03T17:37:02;102585.28;;;11.76;100.00
71485;BME280;59300;52.074;4.758;2022-10-03T17:40:27;102590.56;;;11.77;100.00
71485;BME280;59300;52.074;4.758;2022-10-03T17:43:39;102587.06;;;11.74;100.00
71485;BME280;59300;52.074;4.758;2022-10-03T17:46:57;102595.84;;;11.74;100.00
71485;BME280;59300;52.074;4.758;2022-10-03T17:50:14;102582.66;;;11.68;100.00
71485;BME280;59300;52.074;4.758;2022-10-03T17:53:20;102583.59;;;11.62;100.00
71485;BME280;59300;52.074;4.758;2022-10-03T17:56:24;102581.88;;;11.52;100.00
71485;BME280;59300;52.074;4.758;2022-10-03T17:59:31;102586.31;;;11.39;100.00
71485;BME280;59300;52.074;4.758;2022-10-03T18:02:44;102587.25;;;11.27;100.00
71485;BME280;59300;52.074;4.758;2022-10-03T18:05:56;102589.91;;;11.15;100.00
71485;BME280;59300;52.074;4.758;2022-10-03T18:09:06;102581.13;;;11.02;100.00
71485;BME280;59300;52.074;4.758;2022-10-03T18:12:31;102566.19;;;10.87;100.00
71485;BME280;59300;52.074;4.758;2022-10-03T18:19:29;102563.56;;;10.48;100.00
71485;BME280;59300;52.074;4.758;2022-10-03T18:22:42;102571.44;;;10.34;100.00
71485;BME280;59300;52.074;4.758;2022-10-03T18:32:20;102559.13;;;10.30;100.00
71485;BME280;59300;52.074;4.758;2022-10-03T18:35:26;102559.19;;;10.39;100.00
71485;BME280;59300;52.074;4.758;2022-10-03T18:38:30;102560.06;;;10.48;100.00
71485;BME280;59300;52.074;4.758;2022-10-03T18:41:33;102550.38;;;10.62;100.00
71485;BME280;59300;52.074;4.758;2022-10-03T18:44:35;102549.50;;;10.71;100.00
71485;BME280;59300;52.074;4.758;2022-10-03T18:47:42;102552.97;;;10.81;100.00
71485;BME280;59300;52.074;4.758;2022-10-03T18:51:04;102536.22;;;10.89;100.00
71485;BME280;59300;52.074;4.758;2022-10-03T19:00:46;102545.00;;;11.09;100.00
71485;BME280;59300;52.074;4.758;2022-10-03T19:03:57;102539.72;;;11.15;100.00
71485;BME280;59300;52.074;4.758;2022-10-03T19:07:09;102529.97;;;11.25;100.00
71485;BME280;59300;52.074;4.758;2022-10-03T19:13:42;102532.56;;;11.39;100.00
71485;BME280;59300;52.074;4.758;2022-10-03T19:23:27;102525.41;;;11.59;100.00
71485;BME280;59300;52.074;4.758;2022-10-03T19:26:32;102528.03;;;11.61;100.00
71485;BME280;59300;52.074;4.758;2022-10-03T19:29:42;102529.84;;;11.59;100.00
71485;BME280;59300;52.074;4.758;2022-10-03T19:32:49;102530.72;;;11.55;100.00
71485;BME280;59300;52.074;4.758;2022-10-03T19:35:57;102533.41;;;11.50;100.00
71485;BME280;59300;52.074;4.758;2022-10-03T19:39:02;102527.25;;;11.46;100.00
71485;BME280;59300;52.074;4.758;2022-10-03T19:42:18;102528.13;;;11.42;100.00
71485;BME280;59300;52.074;4.758;2022-10-03T19:45:22;102536.97;;;11.40;100.00
71485;BME280;59300;52.074;4.758;2022-10-03T19:48:26;102531.69;;;11.35;100.00
71485;BME280;59300;52.074;4.758;2022-10-03T19:51:29;102529.03;;;11.36;100.00
71485;BME280;59300;52.074;4.758;2022-10-03T19:54:33;102531.69;;;11.40;100.00
71485;BME280;59300;52.074;4.758;2022-10-03T19:57:54;102533.41;;;11.47;100.00
71485;BME280;59300;52.074;4.758;2022-10-03T20:00:59;102532.53;;;11.48;100.00
71485;BME280;59300;52.074;4.758;2022-10-03T20:04:02;102536.03;;;11.50;100.00
71485;BME280;59300;52.074;4.758;2022-10-03T20:07:10;102539.56;;;11.52;100.00
71485;BME280;59300;52.074;4.758;2022-10-03T20:10:32;102537.78;;;11.52;100.00
71485;BME280;59300;52.074;4.758;2022-10-03T20:13:45;102540.41;;;11.54;100.00
71485;BME280;59300;52.074;4.758;2022-10-03T20:16:48;102536.88;;;11.55;100.00
71485;BME280;59300;52.074;4.758;2022-10-03T20:20:05;102545.72;;;11.56;100.00
71485;BME280;59300;52.074;4.758;2022-10-03T20:23:11;102543.06;;;11.54;100.00
71485;BME280;59300;52.074;4.758;2022-10-03T20:29:38;102532.50;;;11.51;100.00
71485;BME280;59300;52.074;4.758;2022-10-03T20:32:44;102537.81;;;11.51;100.00
71485;BME280;59300;52.074;4.758;2022-10-03T20:35:52;102546.63;;;11.50;100.00
71485;BME280;59300;52.074;4.758;2022-10-03T20:39:17;102531.63;;;11.47;100.00
71485;BME280;59300;52.074;4.758;2022-10-03T20:42:24;102532.53;;;11.43;100.00
71485;BME280;59300;52.074;4.758;2022-10-03T20:45:30;102529.00;;;11.43;100.00
71485;BME280;59300;52.074;4.758;2022-10-03T20:48:36;102529.94;;;11.32;100.00
71485;BME280;59300;52.074;4.758;2022-10-03T20:51:54;102530.84;;;11.25;100.00
71485;BME280;59300;52.074;4.758;2022-10-03T20:55:01;102530.88;;;11.16;100.00
71485;BME280;59300;52.074;4.758;2022-10-03T21:01:27;102530.94;;;10.97;100.00
71485;BME280;59300;52.074;4.758;2022-10-03T21:04:37;102532.69;;;10.95;100.00
71485;BME280;59300;52.074;4.758;2022-10-03T21:07:45;102527.44;;;10.89;100.00
71485;BME280;59300;52.074;4.758;2022-10-03T21:10:55;102519.53;;;10.89;100.00
71485;BME280;59300;52.074;4.758;2022-10-03T21:14:02;102523.03;;;10.82;100.00
71485;BME280;59300;52.074;4.758;2022-10-03T21:17:13;102522.19;;;10.78;100.00
71485;BME280;59300;52.074;4.758;2022-10-03T21:20:21;102515.16;;;10.71;100.00
71485;BME280;59300;52.074;4.758;2022-10-03T21:23:24;102523.06;;;10.62;100.00
71485;BME280;59300;52.074;4.758;2022-10-03T21:26:29;102521.34;;;10.57;100.00
71485;BME280;59300;52.074;4.758;2022-10-03T21:29:34;102517.81;;;10.55;100.00
71485;BME280;59300;52.074;4.758;2022-10-03T21:35:42;102515.16;;;10.63;100.00
71485;BME280;59300;52.074;4.758;2022-10-03T21:38:47;102509.84;;;10.69;100.00
71485;BME280;59300;52.074;4.758;2022-10-03T21:48:14;102489.63;;;10.74;100.00
71485;BME280;59300;52.074;4.758;2022-10-03T21:54:59;102489.63;;;10.74;100.00
71485;BME280;59300;52.074;4.758;2022-10-03T21:58:13;102479.94;;;10.73;100.00
71485;BME280;59300;52.074;4.758;2022-10-03T22:07:41;102451.72;;;10.79;100.00
71485;BME280;59300;52.074;4.758;2022-10-03T22:11:15;102449.09;;;10.80;100.00
71485;BME280;59300;52.074;4.758;2022-10-03T22:17:48;102444.69;;;10.78;100.00
71485;BME280;59300;52.074;4.758;2022-10-03T22:21:06;102440.31;;;10.75;100.00
71485;BME280;59300;52.074;4.758;2022-10-03T22:24:18;102440.31;;;10.73;100.00
71485;BME280;59300;52.074;4.758;2022-10-03T22:27:42;102435.91;;;10.75;100.00
71485;BME280;59300;52.074;4.758;2022-10-03T22:30:56;102442.94;;;10.80;100.00
71485;BME280;59300;52.074;4.758;2022-10-03T22:37:15;102431.44;;;10.93;100.00
71485;BME280;59300;52.074;4.758;2022-10-03T22:40:17;102425.28;;;10.97;100.00
71485;BME280;59300;52.074;4.758;2022-10-03T22:43:20;102422.59;;;11.03;100.00
71485;BME280;59300;52.074;4.758;2022-10-03T22:46:25;102428.72;;;11.12;100.00
71485;BME280;59300;52.074;4.758;2022-10-03T22:49:33;102431.38;;;11.15;100.00
71485;BME280;59300;52.074;4.758;2022-10-03T22:52:40;102441.00;;;11.19;100.00
71485;BME280;59300;52.074;4.758;2022-10-03T22:55:46;102435.72;;;11.19;100.00
71485;BME280;59300;52.074;4.758;2022-10-03T22:58:48;102438.38;;;11.19;100.00
71485;BME280;59300;52.074;4.758;2022-10-03T23:01:53;102436.63;;;11.19;100.00
71485;BME280;59300;52.074;4.758;2022-10-03T23:04:55;102430.44;;;11.19;100.00
71485;BME280;59300;52.074;4.758;2022-10-03T23:08:17;102425.16;;;11.19;100.00
71485;BME280;59300;52.074;4.758;2022-10-03T23:11:31;102423.44;;;11.15;100.00
71485;BME280;59300;52.074;4.758;2022-10-03T23:14:37;102421.69;;;11.11;100.00
71485;BME280;59300;52.074;4.758;2022-10-03T23:17:46;102422.59;;;11.05;100.00
71485;BME280;59300;52.074;4.758;2022-10-03T23:21:08;102411.16;;;11.01;100.00
71485;BME280;59300;52.074;4.758;2022-10-03T23:24:33;102408.50;;;11.03;100.00
71485;BME280;59300;52.074;4.758;2022-10-03T23:31:03;102410.22;;;11.10;100.00
71485;BME280;59300;52.074;4.758;2022-10-03T23:34:07;102404.06;;;11.11;100.00
71485;BME280;59300;52.074;4.758;2022-10-03T23:43:27;102393.56;;;11.00;100.00
71485;BME280;59300;52.074;4.758;2022-10-03T23:46:29;102390.91;;;11.00;100.00
71485;BME280;59300;52.074;4.758;2022-10-03T23:49:32;102391.81;;;10.93;100.00
71485;BME280;59300;52.074;4.758;2022-10-03T23:52:42;102387.44;;;10.89;100.00
71485;BME280;59300;52.074;4.758;2022-10-03T23:55:45;102386.56;;;10.85;100.00
